Megargel, Alabama
Current Conditions -  °F | °C
As of 12:53 PM on Friday 21 Nov 2014 (Local Time) from KGZH Reporting Station
Few Clouds Few Clouds  
Wind Chill: 70°   Ceiling: Unl
Heat Index: 70°   Visibility: 10mi
Dew Point: 44°   Wind: 8mph
Humidity: 39%   Direction: 130°SE
Pressure: 30.3"   Gusts: 18mph
Location:  31.38°N, 87.43°W
Report Text: KGZH 211853Z AUTO 13007G16KT 10SM FEW050 21/07 A3030 RMK AO2 SLP261 T02110067
Loading
Personal Weather Stations






























Interactive Weather Map New forecast layout! Learn more

10-Day Weather Forecast

Advertisements
Track Severe Weather on mobile